sensor_id;sensor_type;location;lat;lon;timestamp;P1;durP1;ratioP1;P2;durP2;ratioP2
27899;SDS011;15243;50.726;7.080;2022-09-09T00:00:21;3.55;;;0.82;;
27899;SDS011;15243;50.726;7.080;2022-09-09T00:02:59;4.47;;;1.02;;
27899;SDS011;15243;50.726;7.080;2022-09-09T00:05:48;7.05;;;1.02;;
27899;SDS011;15243;50.726;7.080;2022-09-09T00:08:35;2.17;;;1.10;;
27899;SDS011;15243;50.726;7.080;2022-09-09T00:11:24;2.63;;;0.80;;
27899;SDS011;15243;50.726;7.080;2022-09-09T00:13:57;5.10;;;0.90;;
27899;SDS011;15243;50.726;7.080;2022-09-09T00:16:28;2.17;;;0.63;;
27899;SDS011;15243;50.726;7.080;2022-09-09T00:19:02;2.95;;;0.70;;
27899;SDS011;15243;50.726;7.080;2022-09-09T00:21:59;5.00;;;1.15;;
27899;SDS011;15243;50.726;7.080;2022-09-09T00:24:52;5.10;;;1.10;;
27899;SDS011;15243;50.726;7.080;2022-09-09T00:30:15;4.88;;;0.80;;
27899;SDS011;15243;50.726;7.080;2022-09-09T00:32:49;4.47;;;1.05;;
27899;SDS011;15243;50.726;7.080;2022-09-09T00:35:22;6.70;;;1.05;;
27899;SDS011;15243;50.726;7.080;2022-09-09T00:37:50;5.00;;;1.17;;
27899;SDS011;15243;50.726;7.080;2022-09-09T00:40:55;5.13;;;0.80;;
27899;SDS011;15243;50.726;7.080;2022-09-09T00:43:27;3.35;;;0.88;;
27899;SDS011;15243;50.726;7.080;2022-09-09T00:46:10;3.90;;;1.10;;
27899;SDS011;15243;50.726;7.080;2022-09-09T00:52:08;4.75;;;1.00;;
27899;SDS011;15243;50.726;7.080;2022-09-09T00:59:59;4.13;;;0.90;;
27899;SDS011;15243;50.726;7.080;2022-09-09T01:02:42;2.55;;;0.95;;
27899;SDS011;15243;50.726;7.080;2022-09-09T01:08:40;5.53;;;1.03;;
27899;SDS011;15243;50.726;7.080;2022-09-09T01:19:45;7.90;;;1.10;;
27899;SDS011;15243;50.726;7.080;2022-09-09T01:22:22;7.00;;;1.17;;
27899;SDS011;15243;50.726;7.080;2022-09-09T01:27:44;3.47;;;1.00;;
27899;SDS011;15243;50.726;7.080;2022-09-09T01:30:15;6.00;;;1.00;;
27899;SDS011;15243;50.726;7.080;2022-09-09T01:32:45;4.85;;;1.00;;
27899;SDS011;15243;50.726;7.080;2022-09-09T01:35:37;9.07;;;1.10;;
27899;SDS011;15243;50.726;7.080;2022-09-09T01:38:23;5.90;;;1.20;;
27899;SDS011;15243;50.726;7.080;2022-09-09T01:40:51;3.35;;;1.02;;
27899;SDS011;15243;50.726;7.080;2022-09-09T01:43:19;4.82;;;1.30;;
27899;SDS011;15243;50.726;7.080;2022-09-09T01:45:48;6.63;;;1.40;;
27899;SDS011;15243;50.726;7.080;2022-09-09T01:48:17;6.43;;;1.25;;
27899;SDS011;15243;50.726;7.080;2022-09-09T01:50:45;3.15;;;1.00;;
27899;SDS011;15243;50.726;7.080;2022-09-09T01:53:12;4.60;;;1.10;;
27899;SDS011;15243;50.726;7.080;2022-09-09T01:55:40;4.45;;;1.02;;
27899;SDS011;15243;50.726;7.080;2022-09-09T02:00:55;6.13;;;1.15;;
27899;SDS011;15243;50.726;7.080;2022-09-09T02:03:29;4.65;;;1.27;;
27899;SDS011;15243;50.726;7.080;2022-09-09T02:06:04;4.40;;;1.25;;
27899;SDS011;15243;50.726;7.080;2022-09-09T02:08:50;6.78;;;1.60;;
27899;SDS011;15243;50.726;7.080;2022-09-09T02:11:22;6.10;;;1.23;;
27899;SDS011;15243;50.726;7.080;2022-09-09T02:14:00;3.42;;;1.05;;
27899;SDS011;15243;50.726;7.080;2022-09-09T02:16:53;5.07;;;0.95;;
27899;SDS011;15243;50.726;7.080;2022-09-09T02:19:27;4.10;;;1.10;;
27899;SDS011;15243;50.726;7.080;2022-09-09T02:21:59;7.63;;;1.40;;
27899;SDS011;15243;50.726;7.080;2022-09-09T02:24:28;5.28;;;1.17;;
27899;SDS011;15243;50.726;7.080;2022-09-09T02:26:57;3.70;;;1.13;;
27899;SDS011;15243;50.726;7.080;2022-09-09T02:29:44;5.68;;;1.20;;
27899;SDS011;15243;50.726;7.080;2022-09-09T02:32:17;3.63;;;1.10;;
27899;SDS011;15243;50.726;7.080;2022-09-09T02:34:48;6.15;;;1.20;;
27899;SDS011;15243;50.726;7.080;2022-09-09T02:37:23;7.40;;;1.15;;
27899;SDS011;15243;50.726;7.080;2022-09-09T02:39:54;6.15;;;1.10;;
27899;SDS011;15243;50.726;7.080;2022-09-09T02:42:21;6.88;;;1.33;;
27899;SDS011;15243;50.726;7.080;2022-09-09T02:44:50;5.20;;;0.95;;
27899;SDS011;15243;50.726;7.080;2022-09-09T02:47:35;5.93;;;1.05;;
27899;SDS011;15243;50.726;7.080;2022-09-09T02:50:11;6.68;;;1.27;;
27899;SDS011;15243;50.726;7.080;2022-09-09T02:52:55;8.38;;;1.33;;
27899;SDS011;15243;50.726;7.080;2022-09-09T02:58:01;5.97;;;1.10;;
27899;SDS011;15243;50.726;7.080;2022-09-09T03:00:32;6.35;;;1.80;;
27899;SDS011;15243;50.726;7.080;2022-09-09T03:03:05;6.78;;;1.23;;
27899;SDS011;15243;50.726;7.080;2022-09-09T03:08:02;2.80;;;0.90;;
27899;SDS011;15243;50.726;7.080;2022-09-09T03:10:30;4.90;;;1.30;;
27899;SDS011;15243;50.726;7.080;2022-09-09T03:12:57;8.27;;;1.23;;
27899;SDS011;15243;50.726;7.080;2022-09-09T03:15:24;5.22;;;1.10;;
27899;SDS011;15243;50.726;7.080;2022-09-09T03:17:55;6.90;;;1.35;;
27899;SDS011;15243;50.726;7.080;2022-09-09T03:20:23;3.28;;;1.13;;
27899;SDS011;15243;50.726;7.080;2022-09-09T03:22:52;7.57;;;1.08;;
27899;SDS011;15243;50.726;7.080;2022-09-09T03:25:20;6.70;;;0.98;;
27899;SDS011;15243;50.726;7.080;2022-09-09T03:27:50;5.72;;;1.00;;
27899;SDS011;15243;50.726;7.080;2022-09-09T03:30:24;5.93;;;0.95;;
27899;SDS011;15243;50.726;7.080;2022-09-09T03:32:53;5.40;;;1.00;;
27899;SDS011;15243;50.726;7.080;2022-09-09T03:35:21;6.97;;;1.60;;
27899;SDS011;15243;50.726;7.080;2022-09-09T03:37:48;9.95;;;1.55;;
27899;SDS011;15243;50.726;7.080;2022-09-09T03:40:15;5.00;;;1.20;;
27899;SDS011;15243;50.726;7.080;2022-09-09T03:42:42;5.47;;;0.98;;
27899;SDS011;15243;50.726;7.080;2022-09-09T03:45:09;9.27;;;1.20;;
27899;SDS011;15243;50.726;7.080;2022-09-09T03:47:36;5.63;;;1.30;;
27899;SDS011;15243;50.726;7.080;2022-09-09T03:50:04;9.60;;;1.77;;
27899;SDS011;15243;50.726;7.080;2022-09-09T03:52:38;6.07;;;1.27;;
27899;SDS011;15243;50.726;7.080;2022-09-09T03:55:07;7.95;;;1.50;;
27899;SDS011;15243;50.726;7.080;2022-09-09T03:57:34;6.40;;;1.10;;
27899;SDS011;15243;50.726;7.080;2022-09-09T04:00:05;3.35;;;1.25;;
27899;SDS011;15243;50.726;7.080;2022-09-09T04:02:34;7.20;;;1.30;;
27899;SDS011;15243;50.726;7.080;2022-09-09T04:05:01;6.55;;;1.17;;
27899;SDS011;15243;50.726;7.080;2022-09-09T04:07:27;4.32;;;1.30;;
27899;SDS011;15243;50.726;7.080;2022-09-09T04:09:54;2.90;;;1.02;;
27899;SDS011;15243;50.726;7.080;2022-09-09T04:12:21;7.18;;;1.65;;
27899;SDS011;15243;50.726;7.080;2022-09-09T04:14:48;5.88;;;1.30;;
27899;SDS011;15243;50.726;7.080;2022-09-09T04:17:15;8.35;;;1.60;;
27899;SDS011;15243;50.726;7.080;2022-09-09T04:19:43;3.58;;;1.15;;
27899;SDS011;15243;50.726;7.080;2022-09-09T04:22:10;6.40;;;1.30;;
27899;SDS011;15243;50.726;7.080;2022-09-09T04:24:37;8.85;;;2.03;;
27899;SDS011;15243;50.726;7.080;2022-09-09T04:27:04;7.47;;;1.77;;
27899;SDS011;15243;50.726;7.080;2022-09-09T04:29:31;6.60;;;1.40;;
27899;SDS011;15243;50.726;7.080;2022-09-09T04:31:58;8.23;;;1.48;;
27899;SDS011;15243;50.726;7.080;2022-09-09T04:34:25;5.25;;;1.30;;
27899;SDS011;15243;50.726;7.080;2022-09-09T04:36:51;5.68;;;1.05;;
27899;SDS011;15243;50.726;7.080;2022-09-09T04:39:18;4.70;;;1.50;;
27899;SDS011;15243;50.726;7.080;2022-09-09T04:41:45;6.75;;;1.05;;
27899;SDS011;15243;50.726;7.080;2022-09-09T04:44:13;4.82;;;1.00;;
27899;SDS011;15243;50.726;7.080;2022-09-09T04:46:40;7.95;;;1.20;;
27899;SDS011;15243;50.726;7.080;2022-09-09T04:49:07;9.57;;;1.70;;
27899;SDS011;15243;50.726;7.080;2022-09-09T04:51:40;7.22;;;1.67;;
27899;SDS011;15243;50.726;7.080;2022-09-09T04:54:07;4.45;;;1.17;;
27899;SDS011;15243;50.726;7.080;2022-09-09T04:56:33;8.30;;;1.42;;
27899;SDS011;15243;50.726;7.080;2022-09-09T04:59:00;5.63;;;1.13;;
27899;SDS011;15243;50.726;7.080;2022-09-09T05:01:29;6.82;;;1.58;;
27899;SDS011;15243;50.726;7.080;2022-09-09T05:03:56;8.15;;;1.33;;
27899;SDS011;15243;50.726;7.080;2022-09-09T05:06:23;6.80;;;1.42;;
27899;SDS011;15243;50.726;7.080;2022-09-09T05:08:50;11.13;;;1.63;;
27899;SDS011;15243;50.726;7.080;2022-09-09T05:11:18;4.10;;;1.25;;
27899;SDS011;15243;50.726;7.080;2022-09-09T05:16:17;5.25;;;1.17;;
27899;SDS011;15243;50.726;7.080;2022-09-09T05:18:45;9.20;;;1.40;;
27899;SDS011;15243;50.726;7.080;2022-09-09T05:21:13;6.80;;;1.10;;
27899;SDS011;15243;50.726;7.080;2022-09-09T05:23:41;5.57;;;1.20;;
27899;SDS011;15243;50.726;7.080;2022-09-09T05:26:10;8.68;;;1.42;;
27899;SDS011;15243;50.726;7.080;2022-09-09T05:28:43;5.18;;;1.20;;
27899;SDS011;15243;50.726;7.080;2022-09-09T05:31:10;6.30;;;1.15;;
27899;SDS011;15243;50.726;7.080;2022-09-09T05:33:39;8.23;;;1.60;;
27899;SDS011;15243;50.726;7.080;2022-09-09T05:36:10;6.05;;;1.15;;
27899;SDS011;15243;50.726;7.080;2022-09-09T05:38:41;6.28;;;1.27;;
27899;SDS011;15243;50.726;7.080;2022-09-09T05:41:09;6.30;;;1.58;;
27899;SDS011;15243;50.726;7.080;2022-09-09T05:43:37;6.55;;;1.08;;
27899;SDS011;15243;50.726;7.080;2022-09-09T05:46:08;10.57;;;1.63;;
27899;SDS011;15243;50.726;7.080;2022-09-09T05:48:37;5.60;;;1.50;;
27899;SDS011;15243;50.726;7.080;2022-09-09T05:51:07;4.93;;;1.20;;
27899;SDS011;15243;50.726;7.080;2022-09-09T05:53:36;5.40;;;1.38;;
27899;SDS011;15243;50.726;7.080;2022-09-09T05:56:05;5.93;;;1.35;;
27899;SDS011;15243;50.726;7.080;2022-09-09T05:58:37;8.63;;;1.50;;
27899;SDS011;15243;50.726;7.080;2022-09-09T06:01:08;6.60;;;1.60;;
27899;SDS011;15243;50.726;7.080;2022-09-09T06:03:38;8.93;;;1.38;;
27899;SDS011;15243;50.726;7.080;2022-09-09T06:06:07;5.03;;;1.27;;
27899;SDS011;15243;50.726;7.080;2022-09-09T06:08:37;7.10;;;1.67;;
27899;SDS011;15243;50.726;7.080;2022-09-09T06:11:06;4.97;;;1.23;;
27899;SDS011;15243;50.726;7.080;2022-09-09T06:13:38;8.45;;;1.55;;
27899;SDS011;15243;50.726;7.080;2022-09-09T06:16:08;7.60;;;1.58;;
27899;SDS011;15243;50.726;7.080;2022-09-09T06:18:38;8.43;;;1.50;;
27899;SDS011;15243;50.726;7.080;2022-09-09T06:21:06;8.88;;;1.33;;
27899;SDS011;15243;50.726;7.080;2022-09-09T06:23:36;4.53;;;1.02;;
27899;SDS011;15243;50.726;7.080;2022-09-09T06:26:07;8.30;;;1.42;;
27899;SDS011;15243;50.726;7.080;2022-09-09T06:28:37;5.68;;;1.35;;
27899;SDS011;15243;50.726;7.080;2022-09-09T06:31:06;8.13;;;1.63;;
27899;SDS011;15243;50.726;7.080;2022-09-09T06:33:35;6.45;;;1.52;;
27899;SDS011;15243;50.726;7.080;2022-09-09T06:36:05;4.38;;;1.20;;
27899;SDS011;15243;50.726;7.080;2022-09-09T06:38:34;7.90;;;1.85;;
27899;SDS011;15243;50.726;7.080;2022-09-09T06:41:01;10.05;;;1.40;;
27899;SDS011;15243;50.726;7.080;2022-09-09T06:43:28;7.85;;;1.60;;
27899;SDS011;15243;50.726;7.080;2022-09-09T06:45:56;10.30;;;1.60;;
27899;SDS011;15243;50.726;7.080;2022-09-09T06:48:30;6.28;;;1.20;;
27899;SDS011;15243;50.726;7.080;2022-09-09T06:51:04;12.48;;;1.50;;
27899;SDS011;15243;50.726;7.080;2022-09-09T06:53:37;10.32;;;1.95;;
27899;SDS011;15243;50.726;7.080;2022-09-09T06:58:50;5.70;;;1.10;;
27899;SDS011;15243;50.726;7.080;2022-09-09T07:01:19;6.55;;;1.10;;
27899;SDS011;15243;50.726;7.080;2022-09-09T07:03:51;9.27;;;1.70;;
27899;SDS011;15243;50.726;7.080;2022-09-09T07:06:22;8.15;;;1.33;;
27899;SDS011;15243;50.726;7.080;2022-09-09T07:08:51;7.03;;;1.15;;
27899;SDS011;15243;50.726;7.080;2022-09-09T07:11:27;6.93;;;1.38;;
27899;SDS011;15243;50.726;7.080;2022-09-09T07:13:59;10.93;;;1.63;;
27899;SDS011;15243;50.726;7.080;2022-09-09T07:16:27;5.90;;;1.20;;
27899;SDS011;15243;50.726;7.080;2022-09-09T07:18:55;6.53;;;1.30;;
27899;SDS011;15243;50.726;7.080;2022-09-09T07:21:27;6.28;;;1.35;;
27899;SDS011;15243;50.726;7.080;2022-09-09T07:23:55;8.13;;;1.25;;
27899;SDS011;15243;50.726;7.080;2022-09-09T07:26:24;6.82;;;1.25;;
27899;SDS011;15243;50.726;7.080;2022-09-09T07:28:52;7.93;;;1.40;;
27899;SDS011;15243;50.726;7.080;2022-09-09T07:31:20;4.82;;;1.13;;
27899;SDS011;15243;50.726;7.080;2022-09-09T07:36:22;7.55;;;1.30;;
27899;SDS011;15243;50.726;7.080;2022-09-09T07:38:55;7.72;;;1.40;;
27899;SDS011;15243;50.726;7.080;2022-09-09T07:41:26;13.07;;;1.70;;
27899;SDS011;15243;50.726;7.080;2022-09-09T07:44:03;7.93;;;1.27;;
27899;SDS011;15243;50.726;7.080;2022-09-09T07:46:38;11.00;;;1.60;;
27899;SDS011;15243;50.726;7.080;2022-09-09T07:49:06;9.68;;;1.88;;
27899;SDS011;15243;50.726;7.080;2022-09-09T07:51:34;7.35;;;1.60;;
27899;SDS011;15243;50.726;7.080;2022-09-09T07:54:04;8.20;;;1.63;;
27899;SDS011;15243;50.726;7.080;2022-09-09T07:56:33;11.43;;;1.60;;
27899;SDS011;15243;50.726;7.080;2022-09-09T07:58:59;6.53;;;1.55;;
27899;SDS011;15243;50.726;7.080;2022-09-09T08:01:28;9.23;;;1.45;;
27899;SDS011;15243;50.726;7.080;2022-09-09T08:06:27;9.63;;;1.65;;
27899;SDS011;15243;50.726;7.080;2022-09-09T08:08:56;8.30;;;1.55;;
27899;SDS011;15243;50.726;7.080;2022-09-09T08:11:24;12.88;;;2.10;;
27899;SDS011;15243;50.726;7.080;2022-09-09T08:13:52;10.98;;;1.50;;
27899;SDS011;15243;50.726;7.080;2022-09-09T08:16:26;8.25;;;1.30;;
27899;SDS011;15243;50.726;7.080;2022-09-09T08:18:56;8.25;;;1.20;;
27899;SDS011;15243;50.726;7.080;2022-09-09T08:21:25;9.50;;;1.75;;
27899;SDS011;15243;50.726;7.080;2022-09-09T08:23:56;8.50;;;1.52;;
27899;SDS011;15243;50.726;7.080;2022-09-09T08:26:26;8.52;;;1.45;;
27899;SDS011;15243;50.726;7.080;2022-09-09T08:28:57;7.38;;;1.38;;
27899;SDS011;15243;50.726;7.080;2022-09-09T08:31:30;10.52;;;1.20;;
27899;SDS011;15243;50.726;7.080;2022-09-09T08:34:01;4.72;;;1.00;;
27899;SDS011;15243;50.726;7.080;2022-09-09T08:36:31;9.98;;;1.55;;
27899;SDS011;15243;50.726;7.080;2022-09-09T08:39:01;11.13;;;1.80;;
27899;SDS011;15243;50.726;7.080;2022-09-09T08:44:48;4.72;;;1.13;;
27899;SDS011;15243;50.726;7.080;2022-09-09T08:50:37;5.78;;;1.17;;
27899;SDS011;15243;50.726;7.080;2022-09-09T08:53:16;10.02;;;1.30;;
27899;SDS011;15243;50.726;7.080;2022-09-09T08:55:53;9.63;;;1.48;;
27899;SDS011;15243;50.726;7.080;2022-09-09T08:58:25;6.07;;;1.52;;
27899;SDS011;15243;50.726;7.080;2022-09-09T09:11:38;7.47;;;1.15;;
27899;SDS011;15243;50.726;7.080;2022-09-09T09:14:15;4.85;;;1.15;;
27899;SDS011;15243;50.726;7.080;2022-09-09T09:19:29;6.15;;;1.00;;
27899;SDS011;15243;50.726;7.080;2022-09-09T09:30:12;4.25;;;0.95;;
27899;SDS011;15243;50.726;7.080;2022-09-09T09:33:02;5.40;;;1.00;;
27899;SDS011;15243;50.726;7.080;2022-09-09T09:35:40;6.53;;;1.50;;
27899;SDS011;15243;50.726;7.080;2022-09-09T09:38:20;6.03;;;1.02;;
27899;SDS011;15243;50.726;7.080;2022-09-09T09:41:09;3.03;;;0.85;;
27899;SDS011;15243;50.726;7.080;2022-09-09T09:43:37;7.75;;;1.00;;
27899;SDS011;15243;50.726;7.080;2022-09-09T09:48:43;4.38;;;1.08;;
27899;SDS011;15243;50.726;7.080;2022-09-09T09:51:13;3.47;;;1.30;;
27899;SDS011;15243;50.726;7.080;2022-09-09T09:53:49;5.93;;;0.80;;
27899;SDS011;15243;50.726;7.080;2022-09-09T09:56:25;7.15;;;1.33;;
27899;SDS011;15243;50.726;7.080;2022-09-09T09:58:55;6.05;;;0.85;;
27899;SDS011;15243;50.726;7.080;2022-09-09T10:01:24;3.55;;;0.77;;
27899;SDS011;15243;50.726;7.080;2022-09-09T10:06:35;1.83;;;0.60;;
27899;SDS011;15243;50.726;7.080;2022-09-09T10:09:19;3.58;;;0.77;;
27899;SDS011;15243;50.726;7.080;2022-09-09T10:26:01;5.97;;;1.08;;
27899;SDS011;15243;50.726;7.080;2022-09-09T10:36:33;5.50;;;0.90;;
27899;SDS011;15243;50.726;7.080;2022-09-09T10:39:05;4.47;;;0.80;;
27899;SDS011;15243;50.726;7.080;2022-09-09T10:41:54;8.23;;;0.93;;
27899;SDS011;15243;50.726;7.080;2022-09-09T10:56:09;4.47;;;1.13;;
27899;SDS011;15243;50.726;7.080;2022-09-09T11:02:02;5.30;;;1.52;;
27899;SDS011;15243;50.726;7.080;2022-09-09T11:04:23;5.32;;;1.33;;
27899;SDS011;15243;50.726;7.080;2022-09-09T11:07:05;4.10;;;0.90;;
27899;SDS011;15243;50.726;7.080;2022-09-09T11:09:39;4.25;;;1.10;;
27899;SDS011;15243;50.726;7.080;2022-09-09T11:12:16;5.93;;;1.08;;
27899;SDS011;15243;50.726;7.080;2022-09-09T11:14:48;3.25;;;0.70;;
27899;SDS011;15243;50.726;7.080;2022-09-09T11:17:26;6.25;;;0.98;;
27899;SDS011;15243;50.726;7.080;2022-09-09T11:20:04;8.73;;;1.15;;
27899;SDS011;15243;50.726;7.080;2022-09-09T11:25:07;2.75;;;0.68;;
27899;SDS011;15243;50.726;7.080;2022-09-09T11:45:10;4.80;;;0.90;;
27899;SDS011;15243;50.726;7.080;2022-09-09T11:47:57;2.08;;;0.80;;
27899;SDS011;15243;50.726;7.080;2022-09-09T11:50:28;4.85;;;0.68;;
27899;SDS011;15243;50.726;7.080;2022-09-09T11:55:40;6.55;;;0.98;;
27899;SDS011;15243;50.726;7.080;2022-09-09T12:00:40;4.40;;;0.90;;
27899;SDS011;15243;50.726;7.080;2022-09-09T12:06:26;3.95;;;0.93;;
27899;SDS011;15243;50.726;7.080;2022-09-09T12:11:51;5.07;;;1.00;;
27899;SDS011;15243;50.726;7.080;2022-09-09T12:14:22;5.72;;;0.73;;
27899;SDS011;15243;50.726;7.080;2022-09-09T12:19:42;2.95;;;0.90;;
27899;SDS011;15243;50.726;7.080;2022-09-09T12:22:15;7.28;;;1.15;;
27899;SDS011;15243;50.726;7.080;2022-09-09T12:24:56;6.78;;;0.90;;
27899;SDS011;15243;50.726;7.080;2022-09-09T12:27:45;8.00;;;1.10;;
27899;SDS011;15243;50.726;7.080;2022-09-09T12:30:28;2.75;;;0.93;;
27899;SDS011;15243;50.726;7.080;2022-09-09T12:33:21;7.22;;;0.85;;
27899;SDS011;15243;50.726;7.080;2022-09-09T12:35:54;3.30;;;0.80;;
27899;SDS011;15243;50.726;7.080;2022-09-09T12:38:36;4.05;;;0.82;;
27899;SDS011;15243;50.726;7.080;2022-09-09T12:41:18;4.85;;;0.70;;
27899;SDS011;15243;50.726;7.080;2022-09-09T12:44:05;5.57;;;1.10;;
27899;SDS011;15243;50.726;7.080;2022-09-09T12:46:41;3.97;;;0.80;;
27899;SDS011;15243;50.726;7.080;2022-09-09T12:49:27;3.15;;;0.63;;
27899;SDS011;15243;50.726;7.080;2022-09-09T12:52:23;4.57;;;0.88;;
27899;SDS011;15243;50.726;7.080;2022-09-09T12:54:53;5.68;;;0.80;;
27899;SDS011;15243;50.726;7.080;2022-09-09T12:57:21;6.63;;;0.80;;
27899;SDS011;15243;50.726;7.080;2022-09-09T12:59:51;3.15;;;0.70;;
27899;SDS011;15243;50.726;7.080;2022-09-09T13:04:46;3.92;;;0.65;;
27899;SDS011;15243;50.726;7.080;2022-09-09T13:07:13;4.90;;;1.08;;
27899;SDS011;15243;50.726;7.080;2022-09-09T13:09:43;3.78;;;0.93;;
27899;SDS011;15243;50.726;7.080;2022-09-09T13:12:16;5.28;;;0.88;;
27899;SDS011;15243;50.726;7.080;2022-09-09T13:14:46;4.35;;;1.02;;
27899;SDS011;15243;50.726;7.080;2022-09-09T13:17:26;5.18;;;0.73;;
27899;SDS011;15243;50.726;7.080;2022-09-09T13:19:57;4.07;;;0.70;;
27899;SDS011;15243;50.726;7.080;2022-09-09T13:27:30;4.25;;;0.65;;
27899;SDS011;15243;50.726;7.080;2022-09-09T13:30:00;2.63;;;0.80;;
27899;SDS011;15243;50.726;7.080;2022-09-09T13:32:28;3.53;;;1.05;;
27899;SDS011;15243;50.726;7.080;2022-09-09T13:34:55;5.10;;;1.00;;
27899;SDS011;15243;50.726;7.080;2022-09-09T13:37:33;4.95;;;0.70;;
27899;SDS011;15243;50.726;7.080;2022-09-09T13:40:03;3.15;;;0.70;;
27899;SDS011;15243;50.726;7.080;2022-09-09T13:42:33;2.83;;;0.60;;
27899;SDS011;15243;50.726;7.080;2022-09-09T13:45:05;1.35;;;0.40;;
27899;SDS011;15243;50.726;7.080;2022-09-09T13:47:35;2.05;;;0.65;;
27899;SDS011;15243;50.726;7.080;2022-09-09T13:50:19;1.63;;;0.43;;
27899;SDS011;15243;50.726;7.080;2022-09-09T13:52:56;1.85;;;0.40;;
27899;SDS011;15243;50.726;7.080;2022-09-09T13:55:25;1.48;;;0.55;;
27899;SDS011;15243;50.726;7.080;2022-09-09T13:57:54;4.38;;;0.88;;
27899;SDS011;15243;50.726;7.080;2022-09-09T14:00:23;3.45;;;0.60;;
27899;SDS011;15243;50.726;7.080;2022-09-09T14:02:51;3.50;;;0.50;;
27899;SDS011;15243;50.726;7.080;2022-09-09T14:05:18;2.05;;;0.65;;
27899;SDS011;15243;50.726;7.080;2022-09-09T14:07:45;2.03;;;0.50;;
27899;SDS011;15243;50.726;7.080;2022-09-09T14:10:18;1.38;;;0.28;;
27899;SDS011;15243;50.726;7.080;2022-09-09T14:12:45;1.08;;;0.35;;
27899;SDS011;15243;50.726;7.080;2022-09-09T14:15:13;1.40;;;0.40;;
27899;SDS011;15243;50.726;7.080;2022-09-09T14:17:40;4.45;;;0.60;;
27899;SDS011;15243;50.726;7.080;2022-09-09T14:20:08;2.63;;;0.50;;
27899;SDS011;15243;50.726;7.080;2022-09-09T14:22:36;2.00;;;0.63;;
27899;SDS011;15243;50.726;7.080;2022-09-09T14:25:03;2.13;;;0.60;;
27899;SDS011;15243;50.726;7.080;2022-09-09T14:27:31;1.33;;;0.40;;
27899;SDS011;15243;50.726;7.080;2022-09-09T14:29:59;2.53;;;0.52;;
27899;SDS011;15243;50.726;7.080;2022-09-09T14:32:27;2.90;;;0.30;;
27899;SDS011;15243;50.726;7.080;2022-09-09T14:34:54;1.15;;;0.40;;
27899;SDS011;15243;50.726;7.080;2022-09-09T14:37:21;1.70;;;0.55;;
27899;SDS011;15243;50.726;7.080;2022-09-09T14:39:48;2.25;;;0.50;;
27899;SDS011;15243;50.726;7.080;2022-09-09T14:42:17;1.58;;;0.50;;
27899;SDS011;15243;50.726;7.080;2022-09-09T14:44:45;1.63;;;0.50;;
27899;SDS011;15243;50.726;7.080;2022-09-09T14:47:11;1.92;;;0.50;;
27899;SDS011;15243;50.726;7.080;2022-09-09T14:49:38;1.55;;;0.45;;
27899;SDS011;15243;50.726;7.080;2022-09-09T14:52:10;2.33;;;0.45;;
27899;SDS011;15243;50.726;7.080;2022-09-09T14:54:37;1.67;;;0.40;;
27899;SDS011;15243;50.726;7.080;2022-09-09T14:57:04;1.98;;;0.60;;
27899;SDS011;15243;50.726;7.080;2022-09-09T14:59:31;1.63;;;0.55;;
27899;SDS011;15243;50.726;7.080;2022-09-09T15:01:58;1.13;;;0.40;;
27899;SDS011;15243;50.726;7.080;2022-09-09T15:04:26;2.28;;;0.40;;
27899;SDS011;15243;50.726;7.080;2022-09-09T15:06:53;1.70;;;0.55;;
27899;SDS011;15243;50.726;7.080;2022-09-09T15:09:20;1.95;;;0.52;;
27899;SDS011;15243;50.726;7.080;2022-09-09T15:11:47;1.65;;;0.57;;
27899;SDS011;15243;50.726;7.080;2022-09-09T15:14:14;1.63;;;0.40;;
27899;SDS011;15243;50.726;7.080;2022-09-09T15:16:41;2.78;;;0.35;;
27899;SDS011;15243;50.726;7.080;2022-09-09T15:19:08;4.22;;;0.65;;
27899;SDS011;15243;50.726;7.080;2022-09-09T15:21:35;1.77;;;0.40;;
27899;SDS011;15243;50.726;7.080;2022-09-09T15:24:04;2.60;;;0.60;;
27899;SDS011;15243;50.726;7.080;2022-09-09T15:26:33;2.28;;;0.63;;
27899;SDS011;15243;50.726;7.080;2022-09-09T15:29:01;1.60;;;0.65;;
27899;SDS011;15243;50.726;7.080;2022-09-09T15:31:29;0.98;;;0.50;;
27899;SDS011;15243;50.726;7.080;2022-09-09T15:34:01;1.63;;;0.40;;
27899;SDS011;15243;50.726;7.080;2022-09-09T15:36:33;1.50;;;0.77;;
27899;SDS011;15243;50.726;7.080;2022-09-09T15:39:03;2.63;;;0.73;;
27899;SDS011;15243;50.726;7.080;2022-09-09T15:41:32;1.13;;;0.57;;
27899;SDS011;15243;50.726;7.080;2022-09-09T15:43:59;2.33;;;0.85;;
27899;SDS011;15243;50.726;7.080;2022-09-09T15:46:31;2.28;;;1.25;;
27899;SDS011;15243;50.726;7.080;2022-09-09T15:51:40;3.47;;;0.50;;
27899;SDS011;15243;50.726;7.080;2022-09-09T15:54:16;2.95;;;0.85;;
27899;SDS011;15243;50.726;7.080;2022-09-09T15:56:45;1.60;;;0.40;;
27899;SDS011;15243;50.726;7.080;2022-09-09T15:59:14;5.57;;;0.77;;
27899;SDS011;15243;50.726;7.080;2022-09-09T16:01:41;1.88;;;0.68;;
27899;SDS011;15243;50.726;7.080;2022-09-09T16:04:10;2.47;;;0.52;;
27899;SDS011;15243;50.726;7.080;2022-09-09T16:06:37;1.50;;;0.57;;
27899;SDS011;15243;50.726;7.080;2022-09-09T16:09:05;3.63;;;0.70;;
27899;SDS011;15243;50.726;7.080;2022-09-09T16:11:34;2.25;;;0.75;;
27899;SDS011;15243;50.726;7.080;2022-09-09T16:14:03;2.42;;;0.90;;
27899;SDS011;15243;50.726;7.080;2022-09-09T16:16:30;3.33;;;0.77;;
27899;SDS011;15243;50.726;7.080;2022-09-09T16:18:58;1.95;;;0.75;;
27899;SDS011;15243;50.726;7.080;2022-09-09T16:21:29;4.45;;;0.68;;
27899;SDS011;15243;50.726;7.080;2022-09-09T16:23:59;2.30;;;0.77;;
27899;SDS011;15243;50.726;7.080;2022-09-09T16:26:27;2.65;;;0.70;;
27899;SDS011;15243;50.726;7.080;2022-09-09T16:28:57;8.40;;;1.25;;
27899;SDS011;15243;50.726;7.080;2022-09-09T16:31:25;0.95;;;0.40;;
27899;SDS011;15243;50.726;7.080;2022-09-09T16:33:54;2.78;;;0.63;;
27899;SDS011;15243;50.726;7.080;2022-09-09T16:36:25;1.67;;;0.50;;
27899;SDS011;15243;50.726;7.080;2022-09-09T16:38:53;1.98;;;0.50;;
27899;SDS011;15243;50.726;7.080;2022-09-09T16:41:21;2.53;;;0.70;;
27899;SDS011;15243;50.726;7.080;2022-09-09T16:43:55;2.17;;;0.63;;
27899;SDS011;15243;50.726;7.080;2022-09-09T16:46:23;1.17;;;0.45;;
27899;SDS011;15243;50.726;7.080;2022-09-09T16:48:51;6.55;;;0.82;;
27899;SDS011;15243;50.726;7.080;2022-09-09T16:51:22;2.55;;;0.70;;
27899;SDS011;15243;50.726;7.080;2022-09-09T16:53:51;1.52;;;0.77;;
27899;SDS011;15243;50.726;7.080;2022-09-09T16:56:20;2.08;;;0.60;;
27899;SDS011;15243;50.726;7.080;2022-09-09T16:58:52;5.28;;;0.70;;
27899;SDS011;15243;50.726;7.080;2022-09-09T17:01:24;3.40;;;0.98;;
27899;SDS011;15243;50.726;7.080;2022-09-09T17:03:59;3.70;;;0.93;;
27899;SDS011;15243;50.726;7.080;2022-09-09T17:06:30;2.47;;;0.80;;
27899;SDS011;15243;50.726;7.080;2022-09-09T17:09:01;4.10;;;0.65;;
27899;SDS011;15243;50.726;7.080;2022-09-09T17:11:30;1.90;;;0.52;;
27899;SDS011;15243;50.726;7.080;2022-09-09T17:13:57;2.22;;;0.75;;
27899;SDS011;15243;50.726;7.080;2022-09-09T17:16:25;3.40;;;0.70;;
27899;SDS011;15243;50.726;7.080;2022-09-09T17:18:55;2.90;;;0.77;;
27899;SDS011;15243;50.726;7.080;2022-09-09T17:21:23;3.08;;;0.88;;
27899;SDS011;15243;50.726;7.080;2022-09-09T17:23:53;3.13;;;0.80;;
27899;SDS011;15243;50.726;7.080;2022-09-09T17:26:21;2.45;;;0.68;;
27899;SDS011;15243;50.726;7.080;2022-09-09T17:28:53;3.28;;;0.70;;
27899;SDS011;15243;50.726;7.080;2022-09-09T17:31:25;3.55;;;0.77;;
27899;SDS011;15243;50.726;7.080;2022-09-09T17:33:54;1.92;;;0.73;;
27899;SDS011;15243;50.726;7.080;2022-09-09T17:38:52;1.58;;;0.75;;
27899;SDS011;15243;50.726;7.080;2022-09-09T17:41:24;1.42;;;0.65;;
27899;SDS011;15243;50.726;7.080;2022-09-09T17:43:55;2.80;;;0.93;;
27899;SDS011;15243;50.726;7.080;2022-09-09T17:46:28;2.10;;;0.82;;
27899;SDS011;15243;50.726;7.080;2022-09-09T17:48:59;4.97;;;0.77;;
27899;SDS011;15243;50.726;7.080;2022-09-09T17:51:34;2.78;;;0.85;;
27899;SDS011;15243;50.726;7.080;2022-09-09T17:54:05;5.38;;;0.95;;